DW4754 Weather Reports


Display with metric or nautical units.
time (UTC)temp
F
wind
direction
speed
MPH
gust
MPH
rain 1hr
in
rain 24hr
in
rain mn
in
humidity
%
barometer
mb
20220812033336 88 150 0.0 0.0 0.00 0.01 0.01 49 1015.1
20220812030328 88 150 0.0 1.0 0.00 0.01 0.01 46 1014.8
20220812023417 89 150 0.0 0.0 0.00 0.01 0.01 44 1014.1
20220812023334 89 150 0.0 0.0 0.00 0.01 0.01 44 1014.1
20220812020345 91 150 0.0 0.0 0.00 0.01 0.01 39 1014.0
20220812013333 93 150 0.0 0.0 0.00 0.01 0.01 36 1013.4
20220812010325 94 150 0.0 1.0 0.00 0.03 0.01 34 1013.1
20220812003409 95 190 0.0 2.0 0.00 0.03 0.01 32 1012.9
20220812000322 97 89 0.0 3.0 0.00 0.03 0.01 29 1012.8
20220811233329 97 215 0.0 5.0 0.00 0.03 0.01 32 1012.8
20220811230359 97 194 0.0 3.0 0.00 0.44 0.01 36 1012.9
20220811223325 97 107 0.0 3.0 0.00 0.44 0.01 40 1012.9
20220811220359 97 189 0.0 3.0 0.00 0.77 0.01 41 1013.3
20220811213346 97 235 0.0 5.0 0.00 0.77 0.01 39 1013.6
20220811210357 97 228 0.0 4.0 0.00 0.77 0.01 43 1014.1
20220811203325 96 231 0.0 3.0 0.00 0.77 0.01 44 1014.2
20220811200337 95 173 0.0 1.0 0.00 0.77 0.01 48 1014.8
20220811193416 95 201 0.0 2.0 0.00 0.77 0.01 46 1015.2
20220811190352 94 202 0.0 0.0 0.00 0.77 0.01 50 1015.7
20220811183408 93 205 0.0 4.0 0.00 0.77 0.01 55 1016.1
20220811180420 90 208 0.0 3.0 0.00 0.77 0.01 58 1016.7
20220811173423 94 129 1.0 3.0 0.00 0.77 0.01 54 1016.9
20220811173341 94 129 1.0 3.0 0.00 0.77 0.01 54 1016.9
20220811170336 93 128 0.0 0.0 0.00 0.77 0.01 56 1017.0
20220811163404 92 128 0.0 0.0 0.00 0.77 0.01 58 1017.2
20220811160417 89 128 0.0 0.0 0.00 0.77 0.01 61 1017.2
20220811160334 89 128 0.0 0.0 0.00 0.77 0.01 61 1017.2
20220811153348 88 128 0.0 0.0 0.00 0.77 0.01 67 1017.2
20220811150323 86 128 0.0 0.0 0.00 0.77 0.01 69 1017.3
20220811143352 85 128 0.0 0.0 0.00 0.77 0.01 74 1017.3
20220811140355 82 128 0.0 0.0 0.01 0.77 0.01 81 1017.2
20220811133338 79 128 0.0 0.0 0.01 0.77 0.01 88 1017.2
20220811130457 77 128 0.0 0.0 0.00 0.76 0.00 92 1017.3
20220811130414 77 128 0.0 0.0 0.00 0.76 0.00 92 1017.3
20220811040330 77 128 0.0 0.0 0.00 0.76 0.76 91 1017.2